Main page
METAR-TAF:

METAR-TAF

Airports :

Bilbao Airport

Bilbao, Spain

latitude: 43-18N, longitude: 002-56W, elevation: 42 m

Current weather observation

The report was made 21 minutes ago, at 19:30 UTC
Wind 7 kt from the East/Southeast, varying between East and South/Southeast
Temperature 20°C
Humidity 64%
Pressure 1016 hPa
Visibility 10 km or more
no clouds below 1500 m and no cumulonimbus

METAR: LEBB 091930Z 12007KT 080V150 CAVOK 20/13 Q1016 NOSIG

Time: 21:51 (19:51 UTC)

Forecast

The report was made 2 hours and 51 minutes ago, at 17:00 UTC
Forecast valid from 09 at 18 UTC to 10 at 18 UTC
Wind 8 kt from the East/Southeast
Visibility 10 km or more
Few clouds at a height of 3000 ft
Temporary
from 09 at 18 UTC to 09 at 20 UTC
Wind 10 kt from the East/Northeast
Temporary
from 10 at 12 UTC to 10 at 18 UTC
Wind 8 kt from the Northwest

TAF: LEBB 091700Z 0918/1018 12008KT 9999 FEW030 TX23/0918Z TN13/1006Z TEMPO 0918/0920 06010KT TEMPO 1012/1018 32008KT

Weather observations and forecasts of more than 4000 airports (METAR and TAF reports).

The available stations are represented by yellow and red dots on the map.

Hover mouse over dot to see the name of the station.

Then click to see weather observations and forecasts.

To change the map : click on the green buttons with a black cross to zoom in, on the green button with a dash to zoom out, or on the green arrows for adjacent maps.


METAR-TAF: